Puerto Serrano, Spain
Current Conditions -  °F | °C
As of 7:00 AM on Wednesday 22 Oct 2014 (Local Time) from LEMO Reporting Station
Clear Clear  
Wind Chill: 68°   Ceiling: Unl
Heat Index: 68°   Visibility: 6mi
Dew Point: 50°   Wind: 6mph
Humidity: 52%   Direction: 60°ENE
Pressure: 30.24"   Gusts: NA
Location:  36.92°N, 5.54°W
Report Text: LEMO 220500Z 06005KT 030V090 CAVOK 20/10 Q1024 NOSIG
Loading
Personal Weather Stations






























Interactive Weather Map
Tropical Storm Tracking
New forecast layout! Learn more

10-Day Weather Forecast

Advertisements
Track Severe Weather on mobile